This is the latest recevied weather packets stored in our database for station/object W7PLC. If no packets are shown the sender has not sent any weather packets the latest 10 day(s).
| Time | Temp. | Humidity | Pressure | Rain* | Wind** | Luminosity | Snow |
|---|---|---|---|---|---|---|---|
| 1777668991 | 25° C | 49% | 1013.7 hPa | 0 mm | - | 620 W/m² | - |
| 1777668689 | 24.44° C | 49% | 1013.9 hPa | 0 mm | - | 637 W/m² | - |
| 1777668385 | 23.33° C | 51% | 1013.8 hPa | 0 mm | - | 467 W/m² | - |
| 1777668081 | 23.89° C | 50% | 1013.9 hPa | 0 mm | - | 444 W/m² | - |
| 1777667778 | 23.89° C | 49% | 1013.9 hPa | 0 mm | - | 233 W/m² | - |
| 1777667476 | 23.89° C | 48% | 1013.7 hPa | 0 mm | - | 263 W/m² | - |
| 1777667173 | 24.44° C | 49% | 1013.9 hPa | 0 mm | - | 285 W/m² | - |
| 1777666869 | 24.44° C | 48% | 1013.9 hPa | 0 mm | - | 309 W/m² | - |
| 1777666567 | 25° C | 47% | 1014 hPa | 0 mm | - | 729 W/m² | - |
| 1777666263 | 23.89° C | 49% | 1013.9 hPa | 0 mm | - | 598 W/m² | - |
| 1777665960 | 22.78° C | 50% | 1014.1 hPa | 0 mm | - | 413 W/m² | - |
| 1777665657 | 23.33° C | 49% | 1013.9 hPa | 0 mm | - | 653 W/m² | - |
| 1777665355 | 23.89° C | 50% | 1014.2 hPa | 0 mm | - | 707 W/m² | - |
| 1777665050 | 22.78° C | 50% | 1014.5 hPa | 0 mm | - | 483 W/m² | - |
| 1777664745 | 22.78° C | 49% | 1014.2 hPa | 0 mm | - | 537 W/m² | - |
| 1777664442 | 22.22° C | 51% | 1014.4 hPa | 0 mm | - | 608 W/m² | - |
| 1777664139 | 22.78° C | 49% | 1014.4 hPa | 0 mm | - | 634 W/m² | - |
| 1777663838 | 22.78° C | 51% | 1014.5 hPa | 0 mm | - | 491 W/m² | - |
| 1777663534 | 22.78° C | 52% | 1014.3 hPa | 0 mm | - | 584 W/m² | - |
| 1777663232 | 22.78° C | 51% | 1014.5 hPa | 0 mm | - | 645 W/m² | - |
| 1777662929 | 20.56° C | 56% | 1014.6 hPa | 0 mm | - | 588 W/m² | - |
| 1777662626 | 21.67° C | 53% | 1014.8 hPa | 0 mm | - | 550 W/m² | - |
| 1777662321 | 21.67° C | 54% | 1014.7 hPa | 0 mm | - | 514 W/m² | - |
| 1777662018 | 21.67° C | 55% | 1015 hPa | 0 mm | - | 462 W/m² | - |
| 1777661714 | 21.67° C | 55% | 1014.7 hPa | 0 mm | - | 599 W/m² | - |
* Rain latest hour (hover to see other rain measurements)
** Current wind speed in m/s (hover to see current wind gust speed)